La Seu — EA7477 — position and weather

sailwx.info

Track history (hours):
 
Tides and Currents Weather Stations Pressure Air Temp Water Temp Dewpoint Dewpoint Depression Visibility Wind Speed Wind Dir Waves Ship Positions

La Seu

Last reported at 2018-Feb-01 16:28 UTC. Time now 2018-Feb-23 09:01 UTC.
Position N 41°13' E 001°44'.
Warning: this ship's position is 21 days out of date.

Length 20 m.

Type: Fishing. MMSI: 224010950.

Date/timePositionNaut miles runAvg speedWind from/ knotsBaromVisibWave heightAir tempDewpointWater temp
2018-Feb-01 16:28N 41°13' E 001°44'0 0.0
2018-Feb-01 16:00N 41°13' E 001°44'0 0.0
2018-Feb-01 15:30N 41°13' E 001°44'0 0.0
2018-Feb-01 14:59N 41°13' E 001°44'1 0.5
2018-Feb-01 13:30N 41°12' E 001°44'5 9.4
2018-Feb-01 13:00N 41°07' E 001°44'0 0.9
2018-Feb-01 12:30N 41°07' E 001°44'1 2.4
2018-Feb-01 11:59N 41°06' E 001°44'5 1.8
2018-Feb-01 09:01N 41°03' E 001°50'0 2.9
2018-Feb-01 08:53N 41°03' E 001°50'1 2.9
2018-Feb-01 08:30N 41°02' E 001°48'3 2.2
2018-Feb-01 07:04N 41°04' E 001°45'0 3.1
2018-Feb-01 07:00N 41°05' E 001°45'1 2.9
2018-Feb-01 06:30N 41°06' E 001°45'4 7.4
2018-Feb-01 06:00N 41°10' E 001°44'3 6.6
2018-Feb-01 05:30N 41°13' E 001°44'0 0.0
2018-Jan-31 14:25N 41°13' E 001°44'7 5.1
2018-Jan-31 13:00N 41°06' E 001°45'0 0.7
2018-Jan-31 12:30N 41°05' E 001°45'2 3.0
2018-Jan-31 11:59N 41°04' E 001°45'4 2.2
2018-Jan-31 09:57N 41°03' E 001°50'1 2.9
2018-Jan-31 09:30N 41°04' E 001°49'1 3.0
2018-Jan-31 09:00N 41°04' E 001°47'2 1.7
2018-Jan-31 07:40N 41°04' E 001°50'0 2.8
2018-Jan-31 07:30N 41°04' E 001°49'2 3.0
2018-Jan-31 07:00N 41°04' E 001°47'2 3.5
2018-Jan-31 06:30N 41°05' E 001°45'510.2
2018-Jan-31 06:00N 41°10' E 001°44'3 6.5
2018-Jan-31 05:30N 41°13' E 001°44'0 0.0
2018-Jan-30 15:52N 41°13' E 001°44'0 0.0
2018-Jan-30 15:30N 41°13' E 001°44'0 0.0
2018-Jan-30 15:00N 41°13' E 001°44'0 0.0
2018-Jan-30 14:30N 41°13' E 001°44'6 5.7
2018-Jan-30 13:30N 41°07' E 001°45'2 3.7
2018-Jan-30 13:00N 41°05' E 001°45'3 2.9
2018-Jan-30 11:50N 41°05' E 001°50'1 3.0
2018-Jan-30 11:30N 41°05' E 001°48'1 0.4
2018-Jan-30 09:30N 41°05' E 001°49'2 3.1
2018-Jan-30 09:00N 41°05' E 001°47'1 0.8
2018-Jan-30 07:45N 41°06' E 001°48'1 2.3
2018-Jan-30 07:30N 41°06' E 001°49'2 3.2
2018-Jan-30 07:00N 41°06' E 001°47'2 3.0
2018-Jan-30 06:30N 41°06' E 001°45'3 6.5
2018-Jan-30 06:00N 41°09' E 001°44'3 6.9
2018-Jan-30 05:30N 41°13' E 001°44'0 0.0
2018-Jan-29 15:27N 41°13' E 001°44'0 0.0
2018-Jan-29 15:00N 41°13' E 001°44'0 0.0
2018-Jan-29 14:30N 41°13' E 001°44'2 4.9
2018-Jan-29 14:00N 41°11' E 001°44'4 9.0
2018-Jan-29 13:30N 41°06' E 001°45'1 1.2
2018-Jan-29 12:59N 41°05' E 001°45'3 2.8
2018-Jan-29 11:44N 41°05' E 001°50'1 2.8
2018-Jan-29 11:30N 41°04' E 001°49'2 3.0
2018-Jan-29 11:00N 41°04' E 001°47'2 1.7
2018-Jan-29 09:39N 41°05' E 001°50'0 2.8
2018-Jan-29 09:30N 41°05' E 001°49'2 3.1
2018-Jan-29 09:00N 41°05' E 001°47'2 1.4
2018-Jan-29 07:40N 41°06' E 001°49'1 3.1
2018-Jan-29 07:30N 41°05' E 001°49'2 3.1
2018-Jan-29 07:01N 41°05' E 001°47'1 2.9
2018-Jan-29 06:30N 41°06' E 001°45'3 6.6
2018-Jan-29 06:00N 41°09' E 001°44'3 6.8
2018-Jan-29 05:31N 41°13' E 001°44'  
2018-Jan-26 14:14N 41°13' E 001°44'1 4.3
2018-Jan-26 14:00N 41°12' E 001°44'4 8.3
2018-Jan-26 13:30N 41°08' E 001°43'4 7.8
2018-Jan-26 13:00N 41°04' E 001°42'0 0.0
2018-Jan-26 06:31N 41°04' E 001°42'010.5
2018-Jan-26 06:30N 41°04' E 001°42'510.6
2018-Jan-26 06:00N 41°09' E 001°44'3 7.0
2018-Jan-26 05:30N 41°13' E 001°44'0 0.0
2018-Jan-25 18:25N 41°13' E 001°44'0 0.0
2018-Jan-25 18:00N 41°13' E 001°44'2 4.8
2018-Jan-25 17:30N 41°12' E 001°47'510.3
2018-Jan-25 17:00N 41°12' E 001°54'510.1
2018-Jan-25 16:30N 41°11' E 002°01'1 2.4
2018-Jan-25 15:59N 41°10' E 002°02'1 1.3
2018-Jan-25 15:30N 41°10' E 002°02'1 1.4
2018-Jan-25 14:58N 41°09' E 002°03'1 1.2
2018-Jan-25 14:30N 41°09' E 002°03'1 2.2
2018-Jan-25 13:58N 41°08' E 002°01'2 1.6
2018-Jan-25 12:42N 41°06' E 002°00'0 1.6
2018-Jan-25 12:25N 41°06' E 001°60'1 1.8
2018-Jan-25 11:59N 41°06' E 001°59'1 1.8
2018-Jan-25 11:30N 41°06' E 001°57'6 2.5
2018-Jan-25 09:03N 41°08' E 002°05'0 0.2
2018-Jan-25 09:00N 41°08' E 002°05'1 2.7
2018-Jan-25 08:29N 41°07' E 002°03'2 2.9
2018-Jan-25 07:50N 41°07' E 002°01'1 2.9
2018-Jan-25 07:27N 41°06' E 001°60'2 3.3
2018-Jan-25 06:52N 41°06' E 001°57'4 9.7
2018-Jan-25 06:29N 41°07' E 001°53'511.3
2018-Jan-25 06:00N 41°11' E 001°47'3 6.2
2018-Jan-25 05:30N 41°13' E 001°44'0 0.0
2018-Jan-24 14:12N 41°13' E 001°44'0 0.3
2018-Jan-24 14:00N 41°13' E 001°44'2 3.3
2018-Jan-24 13:30N 41°12' E 001°46'510.1
2018-Jan-24 13:00N 41°09' E 001°51'5 9.2
2018-Jan-24 12:27N 41°06' E 001°57'6 1.6
2018-Jan-24 08:54N 41°08' E 002°04'1 2.7
2018-Jan-24 08:27N 41°08' E 002°03'1 2.9
2018-Jan-24 08:00N 41°07' E 002°01'1 2.8
2018-Jan-24 07:29N 41°06' E 001°60'2 3.2
2018-Jan-24 06:56N 41°06' E 001°57'4 9.2
2018-Jan-24 06:30N 41°08' E 001°53'510.8
2018-Jan-24 06:00N 41°11' E 001°47'3 6.2
2018-Jan-24 05:30N 41°13' E 001°44'0 0.0
2018-Jan-23 14:17N 41°13' E 001°44'0 0.0
2018-Jan-23 14:00N 41°13' E 001°44'4 8.0
2018-Jan-23 13:30N 41°09' E 001°45'4 7.7
2018-Jan-23 13:00N 41°05' E 001°45'0 0.9
2018-Jan-23 12:30N 41°05' E 001°45'1 3.0
2018-Jan-23 12:00N 41°03' E 001°45'4 2.7
2018-Jan-23 10:32N 41°03' E 001°50'0 3.0
2018-Jan-23 10:30N 41°03' E 001°50'2 3.1
2018-Jan-23 10:00N 41°03' E 001°48'2 1.0
2018-Jan-23 08:23N 41°03' E 001°50'1 3.1
2018-Jan-23 08:00N 41°04' E 001°49'2 3.1
2018-Jan-23 07:30N 41°04' E 001°47'1 2.6
2018-Jan-23 06:57N 41°05' E 001°45'1 3.3
2018-Jan-23 06:30N 41°06' E 001°45'3 6.6
2018-Jan-23 06:00N 41°09' E 001°44'3 6.4
2018-Jan-23 05:30N 41°13' E 001°44'  
Track history (hours):
 
Tides and Currents Weather Stations Pressure Air Temp Water Temp Dewpoint Dewpoint Depression Visibility Wind Speed Wind Dir Waves Ship Positions

La Seu

Last reported at 2018-Feb-01 16:28 UTC. Time now 2018-Feb-23 09:01 UTC.
Position N 41°13' E 001°44'.
Warning: this ship's position is 21 days out of date.

Length 20 m.

Type: Fishing. MMSI: 224010950.

Date/timePositionNaut miles runAvg speedWind from/ knotsBaromVisibWave heightAir tempDewpointWater temp
2018-Feb-01 16:28N 41°13' E 001°44'0 0.0
2018-Feb-01 16:00N 41°13' E 001°44'0 0.0
2018-Feb-01 15:30N 41°13' E 001°44'0 0.0
2018-Feb-01 14:59N 41°13' E 001°44'1 0.5
2018-Feb-01 13:30N 41°12' E 001°44'5 9.4
2018-Feb-01 13:00N 41°07' E 001°44'0 0.9
2018-Feb-01 12:30N 41°07' E 001°44'1 2.4
2018-Feb-01 11:59N 41°06' E 001°44'5 1.8
2018-Feb-01 09:01N 41°03' E 001°50'0 2.9
2018-Feb-01 08:53N 41°03' E 001°50'1 2.9
2018-Feb-01 08:30N 41°02' E 001°48'3 2.2
2018-Feb-01 07:04N 41°04' E 001°45'0 3.1
2018-Feb-01 07:00N 41°05' E 001°45'1 2.9
2018-Feb-01 06:30N 41°06' E 001°45'4 7.4
2018-Feb-01 06:00N 41°10' E 001°44'3 6.6
2018-Feb-01 05:30N 41°13' E 001°44'0 0.0
2018-Jan-31 14:25N 41°13' E 001°44'7 5.1
2018-Jan-31 13:00N 41°06' E 001°45'0 0.7
2018-Jan-31 12:30N 41°05' E 001°45'2 3.0
2018-Jan-31 11:59N 41°04' E 001°45'4 2.2
2018-Jan-31 09:57N 41°03' E 001°50'1 2.9
2018-Jan-31 09:30N 41°04' E 001°49'1 3.0
2018-Jan-31 09:00N 41°04' E 001°47'2 1.7
2018-Jan-31 07:40N 41°04' E 001°50'0 2.8
2018-Jan-31 07:30N 41°04' E 001°49'2 3.0
2018-Jan-31 07:00N 41°04' E 001°47'2 3.5
2018-Jan-31 06:30N 41°05' E 001°45'510.2
2018-Jan-31 06:00N 41°10' E 001°44'3 6.5
2018-Jan-31 05:30N 41°13' E 001°44'0 0.0
2018-Jan-30 15:52N 41°13' E 001°44'0 0.0
2018-Jan-30 15:30N 41°13' E 001°44'0 0.0
2018-Jan-30 15:00N 41°13' E 001°44'0 0.0
2018-Jan-30 14:30N 41°13' E 001°44'6 5.7
2018-Jan-30 13:30N 41°07' E 001°45'2 3.7
2018-Jan-30 13:00N 41°05' E 001°45'3 2.9
2018-Jan-30 11:50N 41°05' E 001°50'1 3.0
2018-Jan-30 11:30N 41°05' E 001°48'1 0.4
2018-Jan-30 09:30N 41°05' E 001°49'2 3.1
2018-Jan-30 09:00N 41°05' E 001°47'1 0.8
2018-Jan-30 07:45N 41°06' E 001°48'1 2.3
2018-Jan-30 07:30N 41°06' E 001°49'2 3.2
2018-Jan-30 07:00N 41°06' E 001°47'2 3.0
2018-Jan-30 06:30N 41°06' E 001°45'3 6.5
2018-Jan-30 06:00N 41°09' E 001°44'3 6.9
2018-Jan-30 05:30N 41°13' E 001°44'0 0.0
2018-Jan-29 15:27N 41°13' E 001°44'0 0.0
2018-Jan-29 15:00N 41°13' E 001°44'0 0.0
2018-Jan-29 14:30N 41°13' E 001°44'2 4.9
2018-Jan-29 14:00N 41°11' E 001°44'4 9.0
2018-Jan-29 13:30N 41°06' E 001°45'1 1.2
2018-Jan-29 12:59N 41°05' E 001°45'3 2.8
2018-Jan-29 11:44N 41°05' E 001°50'1 2.8
2018-Jan-29 11:30N 41°04' E 001°49'2 3.0
2018-Jan-29 11:00N 41°04' E 001°47'2 1.7
2018-Jan-29 09:39N 41°05' E 001°50'0 2.8
2018-Jan-29 09:30N 41°05' E 001°49'2 3.1
2018-Jan-29 09:00N 41°05' E 001°47'2 1.4
2018-Jan-29 07:40N 41°06' E 001°49'1 3.1
2018-Jan-29 07:30N 41°05' E 001°49'2 3.1
2018-Jan-29 07:01N 41°05' E 001°47'1 2.9
2018-Jan-29 06:30N 41°06' E 001°45'3 6.6
2018-Jan-29 06:00N 41°09' E 001°44'3 6.8
2018-Jan-29 05:31N 41°13' E 001°44'  
2018-Jan-26 14:14N 41°13' E 001°44'1 4.3
2018-Jan-26 14:00N 41°12' E 001°44'4 8.3
2018-Jan-26 13:30N 41°08' E 001°43'4 7.8
2018-Jan-26 13:00N 41°04' E 001°42'0 0.0
2018-Jan-26 06:31N 41°04' E 001°42'010.5
2018-Jan-26 06:30N 41°04' E 001°42'510.6
2018-Jan-26 06:00N 41°09' E 001°44'3 7.0
2018-Jan-26 05:30N 41°13' E 001°44'0 0.0
2018-Jan-25 18:25N 41°13' E 001°44'0 0.0
2018-Jan-25 18:00N 41°13' E 001°44'2 4.8
2018-Jan-25 17:30N 41°12' E 001°47'510.3
2018-Jan-25 17:00N 41°12' E 001°54'510.1
2018-Jan-25 16:30N 41°11' E 002°01'1 2.4
2018-Jan-25 15:59N 41°10' E 002°02'1 1.3
2018-Jan-25 15:30N 41°10' E 002°02'1 1.4
2018-Jan-25 14:58N 41°09' E 002°03'1 1.2
2018-Jan-25 14:30N 41°09' E 002°03'1 2.2
2018-Jan-25 13:58N 41°08' E 002°01'2 1.6
2018-Jan-25 12:42N 41°06' E 002°00'0 1.6
2018-Jan-25 12:25N 41°06' E 001°60'1 1.8
2018-Jan-25 11:59N 41°06' E 001°59'1 1.8
2018-Jan-25 11:30N 41°06' E 001°57'6 2.5
2018-Jan-25 09:03N 41°08' E 002°05'0 0.2
2018-Jan-25 09:00N 41°08' E 002°05'1 2.7
2018-Jan-25 08:29N 41°07' E 002°03'2 2.9
2018-Jan-25 07:50N 41°07' E 002°01'1 2.9
2018-Jan-25 07:27N 41°06' E 001°60'2 3.3
2018-Jan-25 06:52N 41°06' E 001°57'4 9.7
2018-Jan-25 06:29N 41°07' E 001°53'511.3
2018-Jan-25 06:00N 41°11' E 001°47'3 6.2
2018-Jan-25 05:30N 41°13' E 001°44'0 0.0
2018-Jan-24 14:12N 41°13' E 001°44'0 0.3
2018-Jan-24 14:00N 41°13' E 001°44'2 3.3
2018-Jan-24 13:30N 41°12' E 001°46'510.1
2018-Jan-24 13:00N 41°09' E 001°51'5 9.2
2018-Jan-24 12:27N 41°06' E 001°57'6 1.6
2018-Jan-24 08:54N 41°08' E 002°04'1 2.7
2018-Jan-24 08:27N 41°08' E 002°03'1 2.9
2018-Jan-24 08:00N 41°07' E 002°01'1 2.8
2018-Jan-24 07:29N 41°06' E 001°60'2 3.2
2018-Jan-24 06:56N 41°06' E 001°57'4 9.2
2018-Jan-24 06:30N 41°08' E 001°53'510.8
2018-Jan-24 06:00N 41°11' E 001°47'3 6.2
2018-Jan-24 05:30N 41°13' E 001°44'0 0.0
2018-Jan-23 14:17N 41°13' E 001°44'0 0.0
2018-Jan-23 14:00N 41°13' E 001°44'4 8.0
2018-Jan-23 13:30N 41°09' E 001°45'4 7.7
2018-Jan-23 13:00N 41°05' E 001°45'0 0.9
2018-Jan-23 12:30N 41°05' E 001°45'1 3.0
2018-Jan-23 12:00N 41°03' E 001°45'4 2.7
2018-Jan-23 10:32N 41°03' E 001°50'0 3.0
2018-Jan-23 10:30N 41°03' E 001°50'2 3.1
2018-Jan-23 10:00N 41°03' E 001°48'2 1.0
2018-Jan-23 08:23N 41°03' E 001°50'1 3.1
2018-Jan-23 08:00N 41°04' E 001°49'2 3.1
2018-Jan-23 07:30N 41°04' E 001°47'1 2.6
2018-Jan-23 06:57N 41°05' E 001°45'1 3.3
2018-Jan-23 06:30N 41°06' E 001°45'3 6.6
2018-Jan-23 06:00N 41°09' E 001°44'3 6.4
2018-Jan-23 05:30N 41°13' E 001°44'  

Dump ship's entire track history